Time;durP1;ratioP1;P1;durP2;ratioP2;P2;SDS_P1;SDS_P2;PMS_P1;PMS_P2;Temp;Humidity;BMP_temperature;BMP_pressure;BME280_temperature;BME280_humidity;BME280_pressure;Samples;Min_cycle;Max_cycle;Signal;HPM_P1;HPM_P2
2022/02/02 00:01:18;;;;;;;3.35;1.65;;;19.40;99.90;;;;;;4164633;28;20224;-80
2022/02/02 00:03:22;;;;;;;3.90;1.67;;;19.40;99.90;;;;;;4166374;28;20278;-80
2022/02/02 00:05:31;;;;;;;5.00;1.77;;;19.30;99.90;;;;;;4167241;28;20604;-81
2022/02/02 00:07:44;;;;;;;5.03;1.92;;;19.30;99.90;;;;;;4165475;28;20220;-80
2022/02/02 00:09:52;;;;;;;3.22;1.55;;;19.30;99.90;;;;;;4167067;28;20294;-80
2022/02/02 00:12:15;;;;;;;4.43;2.00;;;19.30;99.90;;;;;;4165897;28;20278;-80
2022/02/02 00:14:29;;;;;;;4.15;1.60;;;19.40;99.90;;;;;;4163690;28;20280;-79
2022/02/02 00:16:49;;;;;;;5.68;2.08;;;19.30;99.90;;;;;;4163946;28;20216;-80
2022/02/02 00:18:56;;;;;;;4.97;1.85;;;19.30;99.90;;;;;;4165145;28;20224;-80
2022/02/02 00:21:03;;;;;;;4.60;1.85;;;19.30;99.90;;;;;;4164336;28;20224;-80
2022/02/02 00:23:14;;;;;;;4.28;1.98;;;19.30;99.90;;;;;;4164803;28;20589;-80
2022/02/02 00:25:21;;;;;;;4.53;1.98;;;19.30;99.90;;;;;;4161599;28;20630;-80
2022/02/02 00:27:25;;;;;;;4.45;1.58;;;19.30;99.90;;;;;;4165850;28;20223;-80
2022/02/02 00:29:34;;;;;;;5.05;1.90;;;19.30;99.90;;;;;;4164451;28;20994;-80
2022/02/02 00:31:41;;;;;;;6.93;2.30;;;19.30;99.90;;;;;;4164294;28;20251;-80
2022/02/02 00:33:47;;;;;;;5.32;1.95;;;19.30;99.90;;;;;;4164912;28;20274;-80
2022/02/02 00:35:59;;;;;;;3.47;1.80;;;19.30;99.90;;;;;;4165622;28;20263;-80
2022/02/02 00:38:02;;;;;;;3.60;2.03;;;19.30;99.90;;;;;;4164864;28;20294;-80
2022/02/02 00:40:06;;;;;;;4.65;2.00;;;19.30;99.90;;;;;;4164979;28;20693;-80
2022/02/02 00:42:10;;;;;;;4.95;1.92;;;19.30;99.90;;;;;;4165111;28;20246;-80
2022/02/02 00:44:15;;;;;;;5.90;2.30;;;19.30;99.90;;;;;;4165003;28;20663;-80
2022/02/02 00:46:22;;;;;;;3.63;1.63;;;19.20;99.90;;;;;;4165272;28;20221;-80
2022/02/02 00:48:27;;;;;;;5.10;1.67;;;19.20;99.90;;;;;;4165757;28;20223;-80
2022/02/02 00:50:29;;;;;;;3.88;1.77;;;19.30;99.90;;;;;;4164363;28;20260;-80
2022/02/02 00:52:32;;;;;;;3.28;1.70;;;19.30;99.90;;;;;;4165219;28;20718;-80
2022/02/02 00:54:34;;;;;;;4.25;1.90;;;19.30;99.90;;;;;;4168104;28;20227;-80
2022/02/02 00:56:36;;;;;;;4.53;1.92;;;19.20;99.90;;;;;;4165559;28;20266;-80
2022/02/02 00:58:40;;;;;;;4.85;1.63;;;19.20;99.90;;;;;;4163430;28;20263;-80
2022/02/02 01:00:43;;;;;;;6.13;2.03;;;19.20;99.90;;;;;;4163845;28;20237;-80
2022/02/02 01:02:45;;;;;;;5.20;1.83;;;19.20;99.90;;;;;;4164932;28;20277;-80
2022/02/02 01:04:48;;;;;;;4.75;1.80;;;19.20;99.90;;;;;;4162477;28;20673;-79
2022/02/02 01:06:58;;;;;;;3.97;1.58;;;19.20;99.90;;;;;;4165232;28;20673;-80
2022/02/02 01:09:16;;;;;;;3.58;1.77;;;19.20;99.90;;;;;;4165330;28;20269;-79
2022/02/02 01:11:44;;;;;;;4.70;1.77;;;19.20;99.90;;;;;;4165590;28;20255;-80
2022/02/02 01:14:42;;;;;;;3.80;1.90;;;19.20;99.90;;;;;;4163581;28;20224;-80
2022/02/02 01:19:00;;;;;;;5.05;2.05;;;19.20;99.90;;;;;;4165650;28;20266;-80
2022/02/02 01:21:05;;;;;;;4.47;1.83;;;19.20;99.90;;;;;;4162011;28;20255;-80
2022/02/02 01:27:51;;;;;;;5.07;1.98;;;19.10;99.90;;;;;;4163424;28;20212;-80
2022/02/02 01:29:54;;;;;;;5.78;2.00;;;19.10;99.90;;;;;;4163239;28;20673;-80
2022/02/02 01:31:57;;;;;;;3.45;1.80;;;19.10;99.90;;;;;;4165353;28;20286;-80
2022/02/02 01:33:59;;;;;;;3.53;1.83;;;19.10;99.90;;;;;;4163472;28;20220;-80
2022/02/02 01:36:05;;;;;;;4.25;1.70;;;19.10;99.90;;;;;;4166637;28;20635;-80
2022/02/02 01:38:07;;;;;;;3.75;2.00;;;19.10;99.90;;;;;;4168039;28;20298;-79
2022/02/02 01:40:18;;;;;;;5.85;1.75;;;19.10;99.90;;;;;;4168084;28;20237;-80
2022/02/02 01:42:21;;;;;;;3.03;1.50;;;19.00;99.90;;;;;;4168575;28;20628;-80
2022/02/02 01:44:30;;;;;;;4.88;1.95;;;19.10;99.90;;;;;;4166856;28;20252;-80
2022/02/02 01:46:36;;;;;;;3.58;1.67;;;19.10;99.90;;;;;;4165646;28;20228;-80
2022/02/02 01:48:46;;;;;;;4.47;1.70;;;19.10;99.90;;;;;;4165738;28;20267;-80
2022/02/02 01:51:04;;;;;;;4.10;1.70;;;19.10;99.90;;;;;;4164806;28;20265;-80
2022/02/02 01:53:15;;;;;;;3.60;1.90;;;19.00;99.90;;;;;;4164346;28;20281;-80
2022/02/02 01:55:28;;;;;;;4.70;2.08;;;19.00;99.90;;;;;;4166008;28;20211;-80
2022/02/02 01:57:53;;;;;;;5.38;1.88;;;19.00;99.90;;;;;;4166265;28;20282;-80
2022/02/02 01:59:55;;;;;;;5.07;1.70;;;19.00;99.90;;;;;;4165043;28;20227;-80
2022/02/02 02:01:59;;;;;;;4.10;1.75;;;19.10;99.90;;;;;;4165179;28;20209;-80
2022/02/02 02:04:02;;;;;;;6.97;2.10;;;19.00;99.90;;;;;;4166298;28;20286;-80
2022/02/02 02:06:05;;;;;;;2.65;1.48;;;19.00;99.90;;;;;;4151742;28;20229;-80
2022/02/02 02:08:09;;;;;;;3.55;1.65;;;19.00;99.90;;;;;;4152989;28;20221;-80
2022/02/02 02:10:11;;;;;;;5.68;1.77;;;19.00;99.90;;;;;;4151152;28;20228;-80
2022/02/02 02:12:13;;;;;;;4.72;1.70;;;19.00;99.90;;;;;;4149735;28;20656;-80
2022/02/02 02:16:36;;;;;;;4.88;1.98;;;19.00;99.90;;;;;;4157591;28;20205;-80
2022/02/02 02:18:40;;;;;;;4.30;1.70;;;18.90;99.90;;;;;;4150474;28;20293;-80
2022/02/02 02:20:42;;;;;;;3.22;1.60;;;19.00;99.90;;;;;;4162698;28;21566;-80
2022/02/02 02:22:46;;;;;;;3.78;1.60;;;19.00;99.90;;;;;;4153178;28;20246;-78
2022/02/02 02:24:49;;;;;;;4.80;1.70;;;18.90;99.90;;;;;;4163629;28;20618;-78
2022/02/02 02:26:51;;;;;;;5.13;1.95;;;18.90;99.90;;;;;;4166045;28;20228;-78
2022/02/02 02:29:09;;;;;;;4.13;1.90;;;19.00;99.90;;;;;;4163966;28;21041;-77
2022/02/02 02:31:20;;;;;;;7.18;2.22;;;19.00;99.90;;;;;;4166090;28;20271;-78
2022/02/02 02:55:46;;;;;;;3.00;1.58;;;19.00;99.90;;;;;;4127191;28;20206;-78
2022/02/02 02:56:52;;;;;;;4.28;1.73;;;18.90;99.90;;;;;;4165941;28;20204;-78
2022/02/02 02:59:06;;;;;;;5.28;1.85;;;18.90;99.90;;;;;;4164332;28;20228;-77
2022/02/02 03:01:20;;;;;;;4.97;1.95;;;18.90;99.90;;;;;;4164673;28;20227;-78
2022/02/02 03:31:35;;;;;;;4.97;2.03;;;18.80;99.90;;;;;;4155609;28;20843;-80
2022/02/02 03:50:23;;;;;;;4.68;1.83;;;18.70;99.90;;;;;;4165168;28;20657;-80
2022/02/02 03:54:57;;;;;;;4.95;1.80;;;18.70;99.90;;;;;;4157231;28;20266;-80
2022/02/02 03:57:26;;;;;;;3.67;1.70;;;18.70;99.90;;;;;;4166114;28;20932;-80
2022/02/02 03:59:40;;;;;;;4.20;1.80;;;18.70;99.90;;;;;;4164901;28;20224;-80
2022/02/02 04:02:04;;;;;;;2.97;1.50;;;18.70;99.90;;;;;;4163593;28;20212;-80
2022/02/02 04:04:20;;;;;;;3.83;1.45;;;18.70;99.90;;;;;;4165184;28;20590;-80
2022/02/02 04:06:25;;;;;;;3.47;1.63;;;18.70;99.90;;;;;;4166963;28;20228;-80
2022/02/02 04:08:29;;;;;;;2.92;1.80;;;18.70;99.90;;;;;;4163657;28;20677;-80
2022/02/02 04:10:31;;;;;;;4.22;1.80;;;18.70;99.90;;;;;;4162073;28;20271;-79
2022/02/02 04:12:45;;;;;;;4.40;1.80;;;18.70;99.90;;;;;;4163971;28;20290;-80
2022/02/02 04:52:28;;;;;;;4.20;1.75;;;18.60;99.90;;;;;;4155077;28;20228;-80
2022/02/02 04:54:38;;;;;;;5.57;2.03;;;18.60;99.90;;;;;;4168472;28;20286;-80
2022/02/02 04:57:10;;;;;;;4.18;1.63;;;18.60;99.90;;;;;;4166148;28;20243;-80
2022/02/02 04:59:20;;;;;;;4.88;1.83;;;18.60;99.90;;;;;;4168095;28;21640;-80
2022/02/02 05:06:05;;;;;;;5.10;1.60;;;18.70;99.90;;;;;;4161625;28;20630;-80
2022/02/02 05:08:15;;;;;;;4.65;1.58;;;18.70;99.90;;;;;;4166711;28;20961;-80
2022/02/02 05:10:27;;;;;;;4.93;1.77;;;18.60;99.90;;;;;;4165443;28;20726;-80
2022/02/02 05:17:39;;;;;;;5.65;1.45;;;18.60;99.90;;;;;;4145768;28;20205;-80
2022/02/02 05:22:56;;;;;;;3.38;1.58;;;18.70;99.90;;;;;;4144705;28;20212;-80
2022/02/02 05:42:00;;;;;;;3.90;1.42;;;18.50;99.90;;;;;;4120651;28;20613;-80
2022/02/02 05:44:16;;;;;;;4.03;1.63;;;18.60;99.90;;;;;;4146337;28;20227;-80
2022/02/02 05:52:54;;;;;;;3.08;1.38;;;18.50;99.90;;;;;;4119984;28;20323;-80
2022/02/02 05:54:56;;;;;;;2.45;1.23;;;18.50;99.90;;;;;;4145543;28;20228;-79
2022/02/02 05:57:00;;;;;;;4.25;1.73;;;18.30;99.90;;;;;;4146053;28;20625;-79
2022/02/02 05:59:02;;;;;;;3.45;1.35;;;18.30;99.90;;;;;;4146946;28;20278;-80
2022/02/02 06:01:06;;;;;;;2.78;1.40;;;18.40;99.90;;;;;;4146132;28;20272;-80
2022/02/02 06:03:11;;;;;;;3.83;1.40;;;18.50;99.90;;;;;;4147892;28;20739;-79
2022/02/02 06:05:13;;;;;;;3.95;1.48;;;18.60;99.90;;;;;;4148433;28;20243;-81
2022/02/02 06:07:16;;;;;;;3.05;1.50;;;18.70;99.90;;;;;;4148443;28;20225;-78
2022/02/02 06:09:22;;;;;;;4.82;1.63;;;18.70;99.90;;;;;;4144334;28;20233;-78
2022/02/02 06:11:26;;;;;;;3.83;1.70;;;18.80;99.90;;;;;;4144981;28;20246;-80
2022/02/02 06:13:39;;;;;;;2.85;1.58;;;18.80;99.90;;;;;;4145743;28;20639;-80
2022/02/02 06:15:42;;;;;;;3.10;1.50;;;18.80;99.90;;;;;;4146016;28;20213;-79
2022/02/02 06:17:49;;;;;;;3.08;1.38;;;18.80;99.90;;;;;;4148301;28;20634;-80
2022/02/02 06:19:51;;;;;;;3.30;1.33;;;18.80;99.90;;;;;;4145862;28;20285;-80
2022/02/02 06:22:00;;;;;;;3.63;1.50;;;18.80;99.90;;;;;;4150966;28;20267;-80
2022/02/02 06:24:08;;;;;;;3.83;1.33;;;18.90;99.90;;;;;;4153111;28;20282;-80
2022/02/02 06:26:15;;;;;;;2.83;1.50;;;18.90;99.90;;;;;;4155221;28;20278;-80
2022/02/02 06:28:23;;;;;;;4.30;1.40;;;18.90;99.90;;;;;;4154263;28;20255;-80
2022/02/02 06:30:26;;;;;;;3.00;1.30;;;18.90;99.90;;;;;;4155015;28;20220;-80
2022/02/02 06:32:36;;;;;;;3.05;1.45;;;18.90;99.90;;;;;;4151769;28;20869;-80
2022/02/02 06:34:42;;;;;;;2.45;1.25;;;19.00;99.90;;;;;;4150540;28;20287;-80
2022/02/02 06:36:46;;;;;;;2.22;1.25;;;19.00;99.90;;;;;;4152405;28;20228;-79
2022/02/02 06:38:49;;;;;;;2.38;1.20;;;19.00;99.90;;;;;;4168565;28;20620;-80
2022/02/02 06:40:52;;;;;;;3.83;1.30;;;19.00;99.90;;;;;;4164882;28;20654;-80
2022/02/02 06:42:59;;;;;;;1.92;1.00;;;19.10;99.90;;;;;;4166394;28;20246;-78
2022/02/02 06:45:02;;;;;;;3.28;1.48;;;19.00;99.90;;;;;;4165110;28;20212;-78
2022/02/02 06:47:05;;;;;;;2.85;1.48;;;19.10;99.90;;;;;;4167972;28;20728;-78
2022/02/02 06:49:09;;;;;;;1.70;1.10;;;19.10;99.90;;;;;;4169211;28;20217;-77
2022/02/02 06:51:17;;;;;;;1.98;1.10;;;19.10;99.90;;;;;;4167559;28;20269;-78
2022/02/02 06:53:27;;;;;;;2.97;1.23;;;19.10;99.90;;;;;;4170131;28;20248;-78
2022/02/02 06:55:39;;;;;;;3.53;1.10;;;19.10;99.90;;;;;;4169703;28;20215;-78
2022/02/02 06:57:56;;;;;;;3.03;1.20;;;19.10;99.90;;;;;;4166116;28;20219;-77
2022/02/02 07:00:11;;;;;;;2.42;1.33;;;19.20;99.90;;;;;;4167217;28;20212;-78
2022/02/02 07:02:30;;;;;;;2.50;1.33;;;19.20;99.90;;;;;;4164980;28;20277;-76
2022/02/02 07:07:37;;;;;;;2.50;1.20;;;19.20;99.90;;;;;;4166653;28;20278;-78
2022/02/02 07:10:00;;;;;;;2.85;1.30;;;19.30;99.90;;;;;;4168465;28;20223;-78
2022/02/02 07:12:12;;;;;;;4.20;1.33;;;19.20;99.90;;;;;;4167073;28;20295;-78
2022/02/02 07:14:22;;;;;;;1.95;1.35;;;19.30;99.90;;;;;;4165759;28;20643;-78
2022/02/02 07:16:39;;;;;;;2.60;1.30;;;19.20;99.90;;;;;;4165559;28;20740;-77
2022/02/02 07:18:53;;;;;;;2.88;1.00;;;19.30;99.90;;;;;;4162237;28;20216;-77
2022/02/02 07:21:14;;;;;;;3.08;1.42;;;19.30;99.90;;;;;;4167877;28;20311;-77
2022/02/02 07:28:20;;;;;;;3.25;1.10;;;19.30;99.90;;;;;;4137391;28;20245;-78
2022/02/02 07:30:31;;;;;;;2.25;1.15;;;19.40;99.90;;;;;;4166923;28;20231;-77
2022/02/02 07:32:42;;;;;;;2.85;1.10;;;19.30;99.90;;;;;;4169621;28;20217;-78
2022/02/02 07:34:56;;;;;;;2.00;1.00;;;19.30;99.90;;;;;;4167516;28;20712;-77
2022/02/02 07:37:04;;;;;;;3.47;1.50;;;19.40;99.90;;;;;;4169233;28;20637;-77
2022/02/02 07:39:10;;;;;;;3.17;1.30;;;19.40;99.90;;;;;;4162412;28;20211;-77
2022/02/02 07:41:31;;;;;;;2.72;1.13;;;19.40;99.90;;;;;;4166253;28;20287;-78
2022/02/02 07:43:40;;;;;;;2.40;1.08;;;19.40;99.90;;;;;;4170090;28;20208;-77
2022/02/02 07:45:44;;;;;;;1.67;0.90;;;19.40;99.90;;;;;;4162972;28;20223;-77
2022/02/02 07:48:00;;;;;;;2.00;1.30;;;19.40;99.90;;;;;;4163513;28;20266;-76
2022/02/02 07:50:05;;;;;;;2.15;1.35;;;19.50;99.90;;;;;;4165256;28;20684;-77
2022/02/02 07:52:09;;;;;;;2.15;1.20;;;19.40;99.90;;;;;;4154441;28;20251;-78
2022/02/02 07:54:18;;;;;;;4.03;1.60;;;19.50;99.90;;;;;;4164434;28;20630;-77
2022/02/02 07:56:26;;;;;;;2.90;1.00;;;19.60;99.90;;;;;;4159308;28;20309;-76
2022/02/02 07:58:28;;;;;;;4.05;1.20;;;19.60;99.90;;;;;;4153412;28;20661;-76
2022/02/02 08:00:32;;;;;;;3.28;1.50;;;19.80;99.90;;;;;;4158176;28;20266;-76
2022/02/02 08:02:47;;;;;;;4.95;1.65;;;19.80;99.90;;;;;;4159552;28;20286;-75
2022/02/02 08:04:51;;;;;;;7.30;1.30;;;20.00;99.90;;;;;;4161953;28;20248;-76
2022/02/02 08:06:55;;;;;;;2.53;1.30;;;20.10;99.90;;;;;;4157585;28;20275;-75
2022/02/02 08:08:57;;;;;;;3.83;1.33;;;20.20;99.90;;;;;;4158254;28;20221;-75
2022/02/02 08:11:04;;;;;;;3.10;1.40;;;20.20;99.90;;;;;;4159035;28;21510;-76
2022/02/02 08:13:12;;;;;;;5.35;1.63;;;20.30;99.90;;;;;;4161168;28;20267;-77
2022/02/02 08:15:16;;;;;;;3.65;1.30;;;20.40;99.90;;;;;;4157162;28;20291;-77
2022/02/02 08:17:19;;;;;;;9.07;1.60;;;20.40;99.90;;;;;;4163665;28;20690;-76
2022/02/02 08:19:22;;;;;;;2.60;1.40;;;20.40;99.90;;;;;;4157811;28;20220;-76
2022/02/02 08:21:26;;;;;;;3.63;1.17;;;20.50;99.90;;;;;;4162200;28;20274;-76
2022/02/02 08:23:28;;;;;;;2.72;1.58;;;20.60;99.90;;;;;;4159267;28;20217;-76
2022/02/02 08:25:32;;;;;;;3.88;1.70;;;20.60;99.90;;;;;;4161483;28;20212;-77
2022/02/02 08:27:40;;;;;;;2.22;1.20;;;20.60;99.90;;;;;;4164000;28;20228;-76
2022/02/02 08:29:43;;;;;;;2.42;1.35;;;20.60;99.90;;;;;;4160462;28;20656;-76
2022/02/02 08:31:45;;;;;;;4.13;1.40;;;20.60;99.90;;;;;;4166709;28;20278;-77
2022/02/02 08:33:49;;;;;;;7.32;2.70;;;20.70;99.90;;;;;;4164901;28;20248;-76
2022/02/02 08:36:03;;;;;;;7.00;2.22;;;20.60;99.90;;;;;;4160433;28;20291;-77
2022/02/02 08:38:14;;;;;;;4.68;1.55;;;20.60;99.90;;;;;;4165782;28;20243;-77
2022/02/02 08:40:25;;;;;;;6.75;2.10;;;20.80;99.90;;;;;;4164593;28;20274;-77
2022/02/02 08:42:31;;;;;;;4.22;1.92;;;20.90;99.90;;;;;;4164746;28;20283;-77
2022/02/02 08:44:44;;;;;;;4.60;1.85;;;20.90;99.90;;;;;;4166603;28;20328;-77
2022/02/02 08:46:56;;;;;;;2.08;1.42;;;20.90;99.90;;;;;;4167686;28;20216;-77
2022/02/02 08:48:58;;;;;;;3.58;1.83;;;20.90;99.90;;;;;;4164857;28;20215;-77
2022/02/02 08:51:04;;;;;;;3.22;1.55;;;20.90;99.90;;;;;;4163055;28;20331;-75
2022/02/02 08:53:16;;;;;;;3.38;1.60;;;21.00;99.90;;;;;;4163623;28;20229;-76
2022/02/02 08:55:21;;;;;;;4.05;1.60;;;21.00;99.90;;;;;;4159563;28;20244;-76
2022/02/02 08:57:41;;;;;;;3.25;1.67;;;21.00;99.90;;;;;;4165830;28;20224;-75
2022/02/02 08:59:51;;;;;;;4.80;2.05;;;21.10;99.90;;;;;;4164991;28;20204;-75
2022/02/02 09:01:58;;;;;;;7.72;2.20;;;21.10;99.90;;;;;;4158148;28;20660;-76
2022/02/02 09:06:20;;;;;;;4.28;1.50;;;21.00;99.90;;;;;;4161278;28;20211;-77
2022/02/02 09:08:28;;;;;;;4.18;1.90;;;21.10;99.90;;;;;;4169838;28;20265;-75
2022/02/02 09:20:13;;;;;;;3.35;1.60;;;21.30;99.90;;;;;;4169187;28;20236;-80
2022/02/02 09:24:50;;;;;;;2.53;1.45;;;21.30;99.90;;;;;;4162359;28;20615;-80
2022/02/02 09:31:37;;;;;;;4.05;1.90;;;21.50;99.90;;;;;;4162073;28;20615;-81
2022/02/02 09:33:54;;;;;;;2.30;1.50;;;21.50;99.90;;;;;;4164350;28;20208;-84
2022/02/02 09:35:57;;;;;;;3.15;1.50;;;21.50;99.90;;;;;;4166646;28;20221;-83
2022/02/02 09:38:03;;;;;;;4.22;1.38;;;21.50;99.90;;;;;;4163054;28;20279;-82
2022/02/02 09:40:25;;;;;;;3.13;1.80;;;21.50;99.90;;;;;;4154341;28;20212;-84
2022/02/02 09:42:32;;;;;;;3.55;1.73;;;21.50;99.90;;;;;;4167610;28;20348;-84
2022/02/02 09:44:38;;;;;;;3.83;1.60;;;21.60;99.90;;;;;;4167455;28;20612;-84
2022/02/02 09:46:52;;;;;;;2.65;1.65;;;21.60;99.90;;;;;;4163767;28;20220;-82
2022/02/02 09:48:58;;;;;;;3.20;1.80;;;21.60;99.90;;;;;;4160864;28;20722;-82
2022/02/02 09:51:05;;;;;;;3.00;1.52;;;21.70;99.90;;;;;;4163074;28;20278;-83
2022/02/02 09:53:10;;;;;;;2.40;1.65;;;21.70;99.90;;;;;;4164146;28;20281;-83
2022/02/02 09:55:19;;;;;;;3.67;1.58;;;21.60;99.90;;;;;;4165496;28;20232;-84
2022/02/02 09:59:56;;;;;;;4.88;1.70;;;21.60;99.90;;;;;;4166019;28;20204;-82
2022/02/02 10:02:30;;;;;;;2.88;1.80;;;21.60;99.90;;;;;;4169518;28;20208;-82
2022/02/02 10:04:37;;;;;;;4.43;1.85;;;21.70;99.90;;;;;;4169718;28;20234;-80
2022/02/02 10:06:53;;;;;;;7.63;2.90;;;21.50;99.90;;;;;;4168301;28;20254;-81
2022/02/02 10:09:20;;;;;;;8.27;3.05;;;20.70;99.90;;;;;;4169147;28;20212;-81
2022/02/02 10:14:14;;;;;;;6.15;2.40;;;19.50;99.90;;;;;;4170622;28;20604;-81
2022/02/02 10:16:18;;;;;;;7.40;2.40;;;19.40;99.90;;;;;;4171459;28;20220;-80
2022/02/02 10:18:29;;;;;;;5.35;2.78;;;19.10;99.90;;;;;;4168951;28;20273;-82
2022/02/02 10:20:32;;;;;;;6.85;2.78;;;19.00;99.90;;;;;;4168589;28;20220;-80
2022/02/02 10:22:35;;;;;;;7.32;3.00;;;18.90;99.90;;;;;;4166426;28;20248;-80
2022/02/02 10:24:44;;;;;;;9.65;3.47;;;18.80;99.90;;;;;;4161139;28;20224;-79
2022/02/02 10:26:50;;;;;;;5.97;2.53;;;18.70;99.90;;;;;;4162229;28;20263;-80
2022/02/02 10:28:55;;;;;;;5.45;2.65;;;19.00;99.90;;;;;;4168953;28;20292;-80
2022/02/02 10:31:03;;;;;;;5.03;2.30;;;19.50;99.90;;;;;;4167548;28;20279;-82
2022/02/02 10:33:05;;;;;;;4.22;1.80;;;19.90;99.90;;;;;;4160803;28;21505;-80
2022/02/02 10:35:09;;;;;;;3.53;1.90;;;20.20;99.90;;;;;;4161701;28;20231;-81
2022/02/02 10:37:17;;;;;;;5.00;2.15;;;20.50;99.90;;;;;;4168205;28;20625;-80
2022/02/02 10:39:20;;;;;;;3.63;2.13;;;20.70;99.90;;;;;;4166150;28;20301;-81
2022/02/02 10:41:31;;;;;;;3.95;1.90;;;20.80;99.90;;;;;;4166888;28;20640;-81
2022/02/02 10:43:37;;;;;;;3.38;1.90;;;21.00;99.90;;;;;;4170895;28;20368;-80
2022/02/02 10:45:40;;;;;;;3.85;1.85;;;21.00;99.90;;;;;;4172655;28;20200;-80
2022/02/02 10:47:43;;;;;;;4.07;1.90;;;21.00;99.90;;;;;;4168743;28;20635;-80
2022/02/02 10:49:55;;;;;;;6.40;2.35;;;21.10;99.90;;;;;;4168247;28;20208;-80
2022/02/02 10:52:04;;;;;;;4.35;1.70;;;21.30;99.90;;;;;;4166121;28;20250;-80
2022/02/02 10:54:19;;;;;;;3.90;2.20;;;21.40;99.90;;;;;;4168937;28;20212;-80
2022/02/02 10:56:32;;;;;;;3.67;2.00;;;21.40;99.90;;;;;;4171126;28;20834;-80
2022/02/02 11:01:08;;;;;;;3.45;1.80;;;21.40;99.90;;;;;;4140552;28;20262;-80
2022/02/02 11:07:54;;;;;;;3.38;2.00;;;21.60;99.90;;;;;;4167411;28;20199;-80
2022/02/02 11:09:57;;;;;;;4.43;2.20;;;21.60;99.90;;;;;;4168151;28;20969;-82
2022/02/02 11:12:00;;;;;;;4.38;2.08;;;21.70;99.90;;;;;;4166836;28;20216;-82
2022/02/02 11:14:06;;;;;;;3.20;2.10;;;21.70;99.90;;;;;;4171926;28;20216;-79
2022/02/02 11:16:13;;;;;;;5.00;2.13;;;21.70;99.90;;;;;;4165698;28;20236;-79
2022/02/02 11:18:20;;;;;;;3.33;1.67;;;21.70;99.90;;;;;;4168134;28;21023;-79
2022/02/02 11:20:24;;;;;;;3.85;1.83;;;21.80;99.90;;;;;;4163521;28;20213;-78
2022/02/02 11:22:34;;;;;;;4.25;1.80;;;21.80;99.90;;;;;;4162920;28;20607;-78
2022/02/02 11:24:38;;;;;;;3.70;1.90;;;21.80;99.90;;;;;;4163790;28;20219;-77
2022/02/02 11:26:41;;;;;;;3.58;1.70;;;21.80;99.90;;;;;;4167385;28;20212;-77
2022/02/02 11:28:49;;;;;;;3.90;1.80;;;21.80;99.90;;;;;;4162724;28;20285;-77
2022/02/02 11:31:04;;;;;;;4.50;1.70;;;21.90;99.90;;;;;;4157828;28;20251;-79
2022/02/02 11:33:23;;;;;;;4.88;1.67;;;21.80;99.90;;;;;;4168024;28;20942;-79
2022/02/02 11:35:28;;;;;;;2.95;1.80;;;21.80;99.90;;;;;;4170111;28;20307;-79
2022/02/02 11:37:56;;;;;;;2.83;1.52;;;21.90;99.90;;;;;;4162967;28;20287;-79
2022/02/02 11:40:08;;;;;;;3.25;1.55;;;21.90;99.90;;;;;;4159493;28;20266;-79
2022/02/02 11:42:56;;;;;;;3.20;1.63;;;22.00;99.90;;;;;;4162304;28;20302;-79
2022/02/02 11:45:14;;;;;;;4.47;2.08;;;22.00;99.90;;;;;;4142734;28;20221;-79
2022/02/02 11:47:42;;;;;;;3.10;1.60;;;22.10;99.90;;;;;;4159908;28;20648;-79
2022/02/02 11:49:51;;;;;;;3.30;1.50;;;22.10;99.90;;;;;;4160663;28;20221;-79
2022/02/02 11:51:57;;;;;;;3.58;1.50;;;22.10;99.90;;;;;;4160924;28;20212;-80
2022/02/02 11:54:01;;;;;;;3.20;1.73;;;22.10;99.90;;;;;;4162010;28;20221;-79
2022/02/02 11:56:07;;;;;;;2.30;1.30;;;22.10;99.90;;;;;;4163210;28;20291;-79
2022/02/02 11:58:15;;;;;;;3.40;1.52;;;22.20;99.90;;;;;;4161363;28;20259;-79
2022/02/02 12:00:28;;;;;;;2.85;1.77;;;22.20;99.90;;;;;;4159294;28;20266;-79
2022/02/02 12:02:55;;;;;;;2.47;1.73;;;22.20;99.90;;;;;;4162281;28;20217;-79
2022/02/02 12:05:05;;;;;;;2.95;1.45;;;22.20;99.90;;;;;;4159984;28;20255;-78
2022/02/02 12:07:17;;;;;;;2.90;1.73;;;22.20;99.90;;;;;;4158736;28;20283;-78
2022/02/02 12:09:26;;;;;;;3.30;1.77;;;22.20;99.90;;;;;;4156737;28;20651;-78
2022/02/02 12:47:43;;;;;;;4.65;1.77;;;22.10;99.90;;;;;;4162677;28;20283;-76
2022/02/02 12:50:02;;;;;;;2.20;1.45;;;22.10;99.90;;;;;;4164436;28;20591;-77
2022/02/02 12:55:20;;;;;;;2.47;1.50;;;22.10;99.90;;;;;;4163641;28;20224;-76
2022/02/02 12:57:05;;;;;;;3.28;1.75;;;22.00;99.90;;;;;;4161023;28;20283;-75
2022/02/02 12:59:40;;;;;;;3.42;1.20;;;22.00;99.90;;;;;;4159951;28;20265;-75
2022/02/02 13:01:42;;;;;;;2.47;1.27;;;22.00;99.90;;;;;;4159795;28;20613;-76
2022/02/02 13:03:45;;;;;;;4.40;1.55;;;22.00;99.90;;;;;;4161426;28;20267;-76
2022/02/02 13:05:47;;;;;;;3.83;1.40;;;21.90;99.90;;;;;;4162047;28;20731;-77
2022/02/02 13:07:54;;;;;;;5.63;1.38;;;21.90;99.90;;;;;;4157123;28;20267;-74
2022/02/02 13:10:01;;;;;;;3.97;1.58;;;21.80;99.90;;;;;;4159088;28;20258;-76
2022/02/02 13:12:22;;;;;;;4.85;1.70;;;21.80;99.90;;;;;;4163270;28;20270;-77
2022/02/02 13:14:36;;;;;;;5.55;1.88;;;21.70;99.90;;;;;;4160520;28;20614;-78
2022/02/02 13:16:38;;;;;;;2.97;1.70;;;21.80;99.90;;;;;;4154940;28;20640;-75
2022/02/02 13:18:46;;;;;;;3.22;1.63;;;21.80;99.90;;;;;;4158126;28;20216;-72
2022/02/02 13:21:03;;;;;;;2.92;1.50;;;21.90;99.90;;;;;;4162927;28;20215;-74
2022/02/02 13:23:14;;;;;;;3.08;1.48;;;21.90;99.90;;;;;;4161086;28;20263;-73
2022/02/02 13:25:21;;;;;;;3.25;1.50;;;21.90;99.90;;;;;;4160936;28;20255;-73
2022/02/02 13:27:26;;;;;;;5.07;1.50;;;21.90;99.90;;;;;;4155646;28;20263;-72
2022/02/02 13:29:35;;;;;;;2.10;1.40;;;21.90;99.90;;;;;;4158010;28;20658;-73
2022/02/02 13:31:49;;;;;;;3.83;1.52;;;21.90;99.90;;;;;;4157966;28;20215;-76
2022/02/02 13:34:03;;;;;;;3.85;1.63;;;22.00;99.90;;;;;;4160137;28;20632;-74
2022/02/02 13:36:23;;;;;;;3.10;1.42;;;22.00;99.90;;;;;;4163330;28;20643;-76
2022/02/02 13:39:01;;;;;;;4.78;1.55;;;21.90;99.90;;;;;;4155236;28;20286;-77
2022/02/02 13:43:39;;;;;;;2.40;1.40;;;22.00;99.90;;;;;;4162065;28;20208;-75
2022/02/02 13:45:53;;;;;;;3.15;1.60;;;21.90;99.90;;;;;;4166082;28;20240;-73
2022/02/02 13:48:12;;;;;;;3.53;1.80;;;22.00;99.90;;;;;;4161060;28;20211;-76
2022/02/02 13:52:52;;;;;;;3.97;1.40;;;22.00;99.90;;;;;;4163615;28;20275;-75
2022/02/02 13:55:10;;;;;;;2.58;1.60;;;22.00;99.90;;;;;;4157784;28;20228;-75
2022/02/02 14:00:22;;;;;;;3.75;1.70;;;22.00;99.90;;;;;;4147850;28;20736;-77
2022/02/02 14:04:58;;;;;;;3.03;1.55;;;22.00;99.90;;;;;;4170633;28;20263;-76
2022/02/02 14:07:16;;;;;;;3.97;1.80;;;22.00;99.90;;;;;;4165839;28;20209;-78
2022/02/02 14:09:23;;;;;;;3.90;1.50;;;22.00;99.90;;;;;;4167871;28;20223;-76
2022/02/02 14:25:54;;;;;;;3.05;1.58;;;22.00;99.90;;;;;;4170266;28;20637;-75
2022/02/02 14:32:37;;;;;;;4.88;1.83;;;22.00;99.90;;;;;;4174722;28;20212;-74
2022/02/02 14:34:40;;;;;;;4.95;1.20;;;22.00;99.90;;;;;;4163534;28;20271;-76
2022/02/02 14:36:42;;;;;;;1.85;1.38;;;22.00;99.90;;;;;;4169004;28;20240;-74
2022/02/02 14:38:50;;;;;;;2.47;1.38;;;22.00;99.90;;;;;;4166304;28;20213;-74
2022/02/02 14:41:08;;;;;;;2.20;1.40;;;22.00;99.90;;;;;;4170942;28;20227;-75
2022/02/02 14:43:15;;;;;;;2.83;1.70;;;22.00;99.90;;;;;;4169592;28;20217;-79
2022/02/02 14:45:21;;;;;;;7.60;1.88;;;22.00;99.90;;;;;;4175157;28;20212;-78
2022/02/02 14:47:30;;;;;;;4.28;1.60;;;22.00;99.90;;;;;;4169701;28;20219;-77
2022/02/02 14:49:41;;;;;;;3.72;1.58;;;22.00;99.90;;;;;;4163478;28;20224;-76
2022/02/02 14:54:09;;;;;;;2.17;1.67;;;22.10;99.90;;;;;;4164957;28;20656;-77
2022/02/02 14:56:35;;;;;;;3.15;1.40;;;22.10;99.90;;;;;;4168260;28;20254;-75
2022/02/02 15:25:12;;;;;;;2.47;1.73;;;22.20;99.90;;;;;;4175879;28;20196;-78
2022/02/02 15:27:21;;;;;;;3.38;1.70;;;22.20;99.90;;;;;;4162268;28;20207;-78
2022/02/02 15:29:32;;;;;;;5.25;1.80;;;22.10;99.90;;;;;;4173300;28;20293;-78
2022/02/02 15:31:36;;;;;;;3.30;1.50;;;22.10;99.90;;;;;;4172545;28;20245;-77
2022/02/02 15:33:39;;;;;;;2.92;1.50;;;22.10;99.90;;;;;;4169460;28;20213;-75
2022/02/02 15:35:43;;;;;;;2.38;1.48;;;22.10;99.90;;;;;;4164428;28;20212;-78
2022/02/02 15:37:55;;;;;;;3.15;1.60;;;22.20;99.90;;;;;;4161563;28;20232;-78
2022/02/02 15:40:04;;;;;;;2.10;1.50;;;22.20;99.90;;;;;;4166044;28;20281;-77
2022/02/02 15:42:22;;;;;;;2.70;1.60;;;22.20;99.90;;;;;;4164592;28;20241;-76
2022/02/02 15:58:39;;;;;;;2.67;1.70;;;22.20;99.90;;;;;;4174675;28;20219;-80
2022/02/02 16:03:08;;;;;;;3.22;1.52;;;22.20;99.90;;;;;;4150542;28;20285;-77
2022/02/02 16:05:15;;;;;;;3.65;1.70;;;22.20;99.90;;;;;;4158272;28;20672;-79
2022/02/02 16:07:25;;;;;;;1.50;1.40;;;22.20;99.90;;;;;;4164297;28;20212;-78
2022/02/02 16:09:34;;;;;;;2.65;1.55;;;22.20;99.90;;;;;;4167122;28;20266;-77
2022/02/02 16:11:36;;;;;;;3.47;1.70;;;22.20;99.90;;;;;;4163905;28;20274;-79
2022/02/02 16:13:43;;;;;;;2.10;1.40;;;22.20;99.90;;;;;;4166605;28;20259;-78
2022/02/02 16:15:45;;;;;;;17.15;2.60;;;22.20;99.90;;;;;;4163367;28;20271;-77
2022/02/02 16:18:20;;;;;;;2.90;1.90;;;22.20;99.90;;;;;;4162214;28;20300;-78